sensor_id;sensor_type;location;lat;lon;timestamp;pressure;altitude;pressure_sealevel;temperature;humidity
34145;BME280;20422;53.014;8.886;2022-11-20T00:01:24;101287.88;;;0.74;100.00
34145;BME280;20422;53.014;8.886;2022-11-20T00:03:53;101284.53;;;0.65;100.00
34145;BME280;20422;53.014;8.886;2022-11-20T00:06:19;101313.41;;;0.71;100.00
34145;BME280;20422;53.014;8.886;2022-11-20T00:08:47;101292.59;;;0.55;100.00
34145;BME280;20422;53.014;8.886;2022-11-20T00:11:16;101307.25;;;0.73;100.00
34145;BME280;20422;53.014;8.886;2022-11-20T00:13:44;101298.75;;;0.56;100.00
34145;BME280;20422;53.014;8.886;2022-11-20T00:16:12;101290.53;;;0.20;100.00
34145;BME280;20422;53.014;8.886;2022-11-20T00:18:39;101285.94;;;0.32;100.00
34145;BME280;20422;53.014;8.886;2022-11-20T00:23:42;101296.09;;;0.57;100.00
34145;BME280;20422;53.014;8.886;2022-11-20T00:26:10;101286.03;;;0.79;100.00
34145;BME280;20422;53.014;8.886;2022-11-20T00:28:38;101290.41;;;1.25;100.00
34145;BME280;20422;53.014;8.886;2022-11-20T00:31:15;101298.94;;;1.39;100.00
34145;BME280;20422;53.014;8.886;2022-11-20T00:33:42;101290.78;;;1.51;100.00
34145;BME280;20422;53.014;8.886;2022-11-20T00:36:15;101263.47;;;1.09;100.00
34145;BME280;20422;53.014;8.886;2022-11-20T00:38:42;101281.84;;;1.14;100.00
34145;BME280;20422;53.014;8.886;2022-11-20T00:41:10;101286.00;;;0.81;100.00
34145;BME280;20422;53.014;8.886;2022-11-20T00:43:38;101275.41;;;0.82;100.00
34145;BME280;20422;53.014;8.886;2022-11-20T00:46:12;101292.41;;;1.14;100.00
34145;BME280;20422;53.014;8.886;2022-11-20T00:48:40;101259.97;;;1.09;100.00
34145;BME280;20422;53.014;8.886;2022-11-20T00:51:07;101281.41;;;1.35;100.00
34145;BME280;20422;53.014;8.886;2022-11-20T00:53:33;101278.63;;;1.43;100.00
34145;BME280;20422;53.014;8.886;2022-11-20T00:56:02;101272.47;;;1.42;100.00
34145;BME280;20422;53.014;8.886;2022-11-20T00:58:31;101286.78;;;1.32;100.00
34145;BME280;20422;53.014;8.886;2022-11-20T01:01:24;101272.19;;;1.56;100.00
34145;BME280;20422;53.014;8.886;2022-11-20T01:03:52;101268.44;;;1.66;100.00
34145;BME280;20422;53.014;8.886;2022-11-20T01:08:47;101279.47;;;1.85;100.00
34145;BME280;20422;53.014;8.886;2022-11-20T01:11:19;101267.84;;;1.92;100.00
34145;BME280;20422;53.014;8.886;2022-11-20T01:13:49;101274.72;;;2.01;100.00
34145;BME280;20422;53.014;8.886;2022-11-20T01:16:21;101281.81;;;1.99;100.00
34145;BME280;20422;53.014;8.886;2022-11-20T01:18:52;101261.22;;;1.74;100.00
34145;BME280;20422;53.014;8.886;2022-11-20T01:21:31;101273.00;;;1.16;100.00
34145;BME280;20422;53.014;8.886;2022-11-20T01:23:58;101268.38;;;0.83;100.00
34145;BME280;20422;53.014;8.886;2022-11-20T01:26:30;101233.19;;;0.36;100.00
34145;BME280;20422;53.014;8.886;2022-11-20T01:28:58;101269.03;;;0.46;100.00
34145;BME280;20422;53.014;8.886;2022-11-20T01:31:32;101262.19;;;0.35;100.00
34145;BME280;20422;53.014;8.886;2022-11-20T01:34:04;101254.38;;;0.28;100.00
34145;BME280;20422;53.014;8.886;2022-11-20T01:36:32;101244.84;;;0.21;100.00
34145;BME280;20422;53.014;8.886;2022-11-20T01:39:04;101261.91;;;0.50;100.00
34145;BME280;20422;53.014;8.886;2022-11-20T01:41:31;101253.97;;;0.51;100.00
34145;BME280;20422;53.014;8.886;2022-11-20T01:44:19;101255.38;;;0.71;100.00
34145;BME280;20422;53.014;8.886;2022-11-20T01:46:59;101248.84;;;0.93;100.00
34145;BME280;20422;53.014;8.886;2022-11-20T01:49:34;101241.34;;;1.15;100.00
34145;BME280;20422;53.014;8.886;2022-11-20T01:52:50;101238.19;;;1.39;100.00
34145;BME280;20422;53.014;8.886;2022-11-20T01:55:14;101241.31;;;1.58;100.00
34145;BME280;20422;53.014;8.886;2022-11-20T01:57:41;101230.56;;;1.67;100.00
34145;BME280;20422;53.014;8.886;2022-11-20T02:00:12;101246.56;;;1.60;100.00
34145;BME280;20422;53.014;8.886;2022-11-20T02:02:43;101240.13;;;1.33;100.00
34145;BME280;20422;53.014;8.886;2022-11-20T02:05:24;101235.25;;;1.13;100.00
34145;BME280;20422;53.014;8.886;2022-11-20T02:07:52;101231.28;;;0.92;100.00
34145;BME280;20422;53.014;8.886;2022-11-20T02:10:20;101232.41;;;0.79;100.00
34145;BME280;20422;53.014;8.886;2022-11-20T02:12:47;101201.41;;;0.90;100.00
34145;BME280;20422;53.014;8.886;2022-11-20T02:15:33;101227.09;;;1.24;100.00
34145;BME280;20422;53.014;8.886;2022-11-20T02:17:59;101227.88;;;1.29;100.00
34145;BME280;20422;53.014;8.886;2022-11-20T02:20:26;101225.28;;;1.26;100.00
34145;BME280;20422;53.014;8.886;2022-11-20T02:25:46;101210.81;;;1.43;100.00
34145;BME280;20422;53.014;8.886;2022-11-20T02:28:13;101214.97;;;1.55;100.00
34145;BME280;20422;53.014;8.886;2022-11-20T02:30:40;101212.03;;;1.69;100.00
34145;BME280;20422;53.014;8.886;2022-11-20T02:33:07;101217.91;;;1.41;100.00
34145;BME280;20422;53.014;8.886;2022-11-20T02:38:02;101195.38;;;1.25;100.00
34145;BME280;20422;53.014;8.886;2022-11-20T02:40:29;101208.19;;;1.43;100.00
34145;BME280;20422;53.014;8.886;2022-11-20T02:42:56;101177.34;;;1.04;100.00
34145;BME280;20422;53.014;8.886;2022-11-20T02:45:24;101171.53;;;0.88;100.00
34145;BME280;20422;53.014;8.886;2022-11-20T02:47:51;101205.91;;;0.83;100.00
34145;BME280;20422;53.014;8.886;2022-11-20T02:50:18;101197.31;;;0.74;100.00
34145;BME280;20422;53.014;8.886;2022-11-20T02:52:45;101201.03;;;1.08;100.00
34145;BME280;20422;53.014;8.886;2022-11-20T02:55:12;101196.16;;;1.30;100.00
34145;BME280;20422;53.014;8.886;2022-11-20T02:57:39;101189.69;;;1.43;100.00
34145;BME280;20422;53.014;8.886;2022-11-20T03:00:06;101195.63;;;1.55;100.00
34145;BME280;20422;53.014;8.886;2022-11-20T03:02:33;101191.97;;;0.78;100.00
34145;BME280;20422;53.014;8.886;2022-11-20T03:05:00;101166.50;;;1.17;100.00
34145;BME280;20422;53.014;8.886;2022-11-20T03:07:27;101191.31;;;1.50;100.00
34145;BME280;20422;53.014;8.886;2022-11-20T03:09:54;101158.22;;;1.34;100.00
34145;BME280;20422;53.014;8.886;2022-11-20T03:12:20;101180.47;;;1.61;100.00
34145;BME280;20422;53.014;8.886;2022-11-20T03:14:47;101145.59;;;1.48;100.00
34145;BME280;20422;53.014;8.886;2022-11-20T03:17:14;101178.66;;;1.65;100.00
34145;BME280;20422;53.014;8.886;2022-11-20T03:19:41;101178.50;;;1.71;100.00
34145;BME280;20422;53.014;8.886;2022-11-20T03:22:09;101159.69;;;1.85;100.00
34145;BME280;20422;53.014;8.886;2022-11-20T03:24:36;101177.63;;;2.07;100.00
34145;BME280;20422;53.014;8.886;2022-11-20T03:27:03;101154.75;;;2.06;100.00
34145;BME280;20422;53.014;8.886;2022-11-20T03:29:30;101158.78;;;2.21;100.00
34145;BME280;20422;53.014;8.886;2022-11-20T03:31:56;101169.34;;;2.21;100.00
34145;BME280;20422;53.014;8.886;2022-11-20T03:34:23;101142.09;;;2.19;100.00
34145;BME280;20422;53.014;8.886;2022-11-20T03:36:49;101154.47;;;2.17;100.00
34145;BME280;20422;53.014;8.886;2022-11-20T03:39:15;101105.47;;;2.04;100.00
34145;BME280;20422;53.014;8.886;2022-11-20T03:41:42;101130.59;;;2.20;100.00
34145;BME280;20422;53.014;8.886;2022-11-20T03:44:11;101155.88;;;2.30;100.00
34145;BME280;20422;53.014;8.886;2022-11-20T03:46:38;101096.63;;;1.71;99.78
34145;BME280;20422;53.014;8.886;2022-11-20T03:49:05;101149.72;;;1.96;100.00
34145;BME280;20422;53.014;8.886;2022-11-20T03:51:33;101126.16;;;1.87;100.00
34145;BME280;20422;53.014;8.886;2022-11-20T03:54:03;101153.78;;;1.73;100.00
34145;BME280;20422;53.014;8.886;2022-11-20T03:56:32;101150.31;;;1.71;100.00
34145;BME280;20422;53.014;8.886;2022-11-20T03:58:58;101148.13;;;1.89;100.00
34145;BME280;20422;53.014;8.886;2022-11-20T04:01:27;101135.59;;;1.97;100.00
34145;BME280;20422;53.014;8.886;2022-11-20T04:03:55;101137.75;;;2.15;100.00
34145;BME280;20422;53.014;8.886;2022-11-20T04:06:24;101147.31;;;2.21;100.00
34145;BME280;20422;53.014;8.886;2022-11-20T04:08:53;101141.72;;;1.99;100.00
34145;BME280;20422;53.014;8.886;2022-11-20T04:11:30;101107.19;;;1.71;100.00
34145;BME280;20422;53.014;8.886;2022-11-20T04:14:04;101138.50;;;1.86;100.00
34145;BME280;20422;53.014;8.886;2022-11-20T04:16:34;101142.34;;;1.73;100.00
34145;BME280;20422;53.014;8.886;2022-11-20T04:19:03;101125.28;;;1.50;100.00
34145;BME280;20422;53.014;8.886;2022-11-20T04:21:30;101117.53;;;1.44;100.00
34145;BME280;20422;53.014;8.886;2022-11-20T04:23:57;101105.19;;;1.45;100.00
34145;BME280;20422;53.014;8.886;2022-11-20T04:26:26;101101.22;;;1.63;100.00
34145;BME280;20422;53.014;8.886;2022-11-20T04:28:52;101134.47;;;1.71;100.00
34145;BME280;20422;53.014;8.886;2022-11-20T04:31:27;101101.63;;;1.46;100.00
34145;BME280;20422;53.014;8.886;2022-11-20T04:33:54;101109.41;;;1.52;100.00
34145;BME280;20422;53.014;8.886;2022-11-20T04:36:25;101136.25;;;1.71;100.00
34145;BME280;20422;53.014;8.886;2022-11-20T04:38:56;101136.91;;;1.80;100.00
34145;BME280;20422;53.014;8.886;2022-11-20T04:41:25;101134.97;;;1.87;100.00
34145;BME280;20422;53.014;8.886;2022-11-20T04:43:55;101125.25;;;1.52;100.00
34145;BME280;20422;53.014;8.886;2022-11-20T04:46:26;101119.78;;;1.60;100.00
34145;BME280;20422;53.014;8.886;2022-11-20T04:48:54;101123.66;;;1.82;100.00
34145;BME280;20422;53.014;8.886;2022-11-20T04:51:20;101124.47;;;1.48;100.00
34145;BME280;20422;53.014;8.886;2022-11-20T04:53:46;101134.28;;;1.79;100.00
34145;BME280;20422;53.014;8.886;2022-11-20T04:56:13;101134.03;;;1.90;100.00
34145;BME280;20422;53.014;8.886;2022-11-20T04:58:40;101107.59;;;1.90;100.00
34145;BME280;20422;53.014;8.886;2022-11-20T05:01:20;101102.25;;;1.91;100.00
34145;BME280;20422;53.014;8.886;2022-11-20T05:03:47;101097.56;;;1.31;100.00
34145;BME280;20422;53.014;8.886;2022-11-20T05:06:16;101106.53;;;1.24;100.00
34145;BME280;20422;53.014;8.886;2022-11-20T05:08:43;101123.66;;;1.45;100.00
34145;BME280;20422;53.014;8.886;2022-11-20T05:11:12;101120.75;;;1.18;100.00
34145;BME280;20422;53.014;8.886;2022-11-20T05:13:39;101099.03;;;1.43;100.00
34145;BME280;20422;53.014;8.886;2022-11-20T05:16:11;101128.09;;;1.44;100.00
34145;BME280;20422;53.014;8.886;2022-11-20T05:18:38;101121.66;;;1.55;100.00
34145;BME280;20422;53.014;8.886;2022-11-20T05:21:06;101115.84;;;1.76;100.00
34145;BME280;20422;53.014;8.886;2022-11-20T05:23:33;101118.28;;;1.85;100.00
34145;BME280;20422;53.014;8.886;2022-11-20T05:26:00;101119.84;;;1.92;100.00
34145;BME280;20422;53.014;8.886;2022-11-20T05:28:29;101119.06;;;1.89;100.00
34145;BME280;20422;53.014;8.886;2022-11-20T05:31:10;101104.50;;;2.06;100.00
34145;BME280;20422;53.014;8.886;2022-11-20T05:33:39;101107.00;;;2.12;100.00
34145;BME280;20422;53.014;8.886;2022-11-20T05:36:06;101103.66;;;2.06;100.00
34145;BME280;20422;53.014;8.886;2022-11-20T05:38:33;101094.50;;;1.85;100.00
34145;BME280;20422;53.014;8.886;2022-11-20T05:41:14;101098.25;;;1.75;100.00
34145;BME280;20422;53.014;8.886;2022-11-20T05:43:43;101107.97;;;2.08;100.00
34145;BME280;20422;53.014;8.886;2022-11-20T05:46:11;101082.03;;;1.90;100.00
34145;BME280;20422;53.014;8.886;2022-11-20T05:48:42;101109.06;;;2.01;100.00
34145;BME280;20422;53.014;8.886;2022-11-20T05:51:12;101110.66;;;2.07;100.00
34145;BME280;20422;53.014;8.886;2022-11-20T05:53:39;101100.34;;;1.98;100.00
34145;BME280;20422;53.014;8.886;2022-11-20T05:56:13;101103.50;;;1.76;100.00
34145;BME280;20422;53.014;8.886;2022-11-20T05:58:41;101096.94;;;1.93;100.00
34145;BME280;20422;53.014;8.886;2022-11-20T06:01:23;101102.00;;;2.02;100.00
34145;BME280;20422;53.014;8.886;2022-11-20T06:03:50;101085.19;;;2.04;100.00
34145;BME280;20422;53.014;8.886;2022-11-20T06:06:16;101095.38;;;1.86;100.00
34145;BME280;20422;53.014;8.886;2022-11-20T06:08:44;101099.22;;;2.06;100.00
34145;BME280;20422;53.014;8.886;2022-11-20T06:11:13;101092.94;;;2.10;100.00
34145;BME280;20422;53.014;8.886;2022-11-20T06:13:40;101092.75;;;1.84;99.77
34145;BME280;20422;53.014;8.886;2022-11-20T06:16:07;101072.50;;;1.85;100.00
34145;BME280;20422;53.014;8.886;2022-11-20T06:18:33;101084.88;;;1.83;100.00
34145;BME280;20422;53.014;8.886;2022-11-20T06:21:20;101092.19;;;1.71;100.00
34145;BME280;20422;53.014;8.886;2022-11-20T06:23:47;101094.63;;;1.80;100.00
34145;BME280;20422;53.014;8.886;2022-11-20T06:26:16;101075.66;;;1.97;100.00
34145;BME280;20422;53.014;8.886;2022-11-20T06:28:43;101078.91;;;2.08;99.74
34145;BME280;20422;53.014;8.886;2022-11-20T06:31:12;101084.28;;;2.05;99.91
34145;BME280;20422;53.014;8.886;2022-11-20T06:33:39;101084.06;;;1.43;100.00
34145;BME280;20422;53.014;8.886;2022-11-20T06:36:06;101070.66;;;1.15;100.00
34145;BME280;20422;53.014;8.886;2022-11-20T06:38:33;101080.69;;;1.38;100.00
34145;BME280;20422;53.014;8.886;2022-11-20T06:40:59;101060.97;;;1.16;100.00
34145;BME280;20422;53.014;8.886;2022-11-20T06:43:26;101065.13;;;0.87;100.00
34145;BME280;20422;53.014;8.886;2022-11-20T06:45:56;101081.84;;;1.25;100.00
34145;BME280;20422;53.014;8.886;2022-11-20T06:48:23;101059.19;;;1.54;100.00
34145;BME280;20422;53.014;8.886;2022-11-20T06:50:52;101058.00;;;1.30;100.00
34145;BME280;20422;53.014;8.886;2022-11-20T06:53:18;101076.16;;;1.05;100.00
34145;BME280;20422;53.014;8.886;2022-11-20T06:55:46;101088.47;;;1.44;100.00
34145;BME280;20422;53.014;8.886;2022-11-20T06:58:13;101085.25;;;1.67;100.00
34145;BME280;20422;53.014;8.886;2022-11-20T07:00:40;101055.28;;;1.68;100.00
34145;BME280;20422;53.014;8.886;2022-11-20T07:03:08;101083.13;;;1.47;100.00
34145;BME280;20422;53.014;8.886;2022-11-20T07:05:35;101068.09;;;1.49;100.00
34145;BME280;20422;53.014;8.886;2022-11-20T07:08:03;101078.28;;;0.90;100.00
34145;BME280;20422;53.014;8.886;2022-11-20T07:10:30;101052.50;;;0.62;100.00
34145;BME280;20422;53.014;8.886;2022-11-20T07:12:56;101042.56;;;0.74;100.00
34145;BME280;20422;53.014;8.886;2022-11-20T07:15:24;101055.06;;;0.65;100.00
34145;BME280;20422;53.014;8.886;2022-11-20T07:17:51;101052.06;;;0.41;100.00
34145;BME280;20422;53.014;8.886;2022-11-20T07:20:17;101055.56;;;0.42;100.00
34145;BME280;20422;53.014;8.886;2022-11-20T07:22:44;101053.44;;;0.59;100.00
34145;BME280;20422;53.014;8.886;2022-11-20T07:25:10;101063.91;;;1.02;100.00
34145;BME280;20422;53.014;8.886;2022-11-20T07:27:37;101070.63;;;1.17;100.00
34145;BME280;20422;53.014;8.886;2022-11-20T07:30:04;101072.59;;;1.46;100.00
34145;BME280;20422;53.014;8.886;2022-11-20T07:32:31;101070.91;;;1.42;100.00
34145;BME280;20422;53.014;8.886;2022-11-20T07:34:57;101078.56;;;1.52;100.00
34145;BME280;20422;53.014;8.886;2022-11-20T07:37:36;101071.31;;;1.62;100.00
34145;BME280;20422;53.014;8.886;2022-11-20T07:40:03;101080.59;;;1.77;100.00
34145;BME280;20422;53.014;8.886;2022-11-20T07:42:30;101039.63;;;1.62;100.00
34145;BME280;20422;53.014;8.886;2022-11-20T07:44:56;101071.34;;;1.59;100.00
34145;BME280;20422;53.014;8.886;2022-11-20T07:47:23;101043.03;;;1.66;100.00
34145;BME280;20422;53.014;8.886;2022-11-20T07:49:50;101050.50;;;1.84;100.00
34145;BME280;20422;53.014;8.886;2022-11-20T07:52:16;101066.56;;;1.75;99.91
34145;BME280;20422;53.014;8.886;2022-11-20T07:54:43;101070.22;;;1.34;100.00
34145;BME280;20422;53.014;8.886;2022-11-20T07:57:09;101076.69;;;1.20;100.00
34145;BME280;20422;53.014;8.886;2022-11-20T07:59:36;101074.38;;;1.45;100.00
34145;BME280;20422;53.014;8.886;2022-11-20T08:02:05;101063.69;;;1.50;100.00
34145;BME280;20422;53.014;8.886;2022-11-20T08:04:31;101068.13;;;1.48;100.00
34145;BME280;20422;53.014;8.886;2022-11-20T08:06:59;101056.38;;;1.24;100.00
34145;BME280;20422;53.014;8.886;2022-11-20T08:09:26;101075.63;;;1.29;100.00
34145;BME280;20422;53.014;8.886;2022-11-20T08:11:52;101072.34;;;1.55;100.00
34145;BME280;20422;53.014;8.886;2022-11-20T08:14:36;101072.94;;;1.31;100.00
34145;BME280;20422;53.014;8.886;2022-11-20T08:17:03;101078.75;;;1.08;100.00
34145;BME280;20422;53.014;8.886;2022-11-20T08:19:29;101083.84;;;1.52;100.00
34145;BME280;20422;53.014;8.886;2022-11-20T08:21:56;101082.13;;;1.14;100.00
34145;BME280;20422;53.014;8.886;2022-11-20T08:24:22;101081.38;;;1.09;100.00
34145;BME280;20422;53.014;8.886;2022-11-20T08:26:49;101066.78;;;0.93;100.00
34145;BME280;20422;53.014;8.886;2022-11-20T08:29:16;101080.63;;;1.03;100.00
34145;BME280;20422;53.014;8.886;2022-11-20T08:31:42;101056.31;;;0.88;100.00
34145;BME280;20422;53.014;8.886;2022-11-20T08:34:09;101065.34;;;0.78;100.00
34145;BME280;20422;53.014;8.886;2022-11-20T08:36:36;101094.63;;;1.05;100.00
34145;BME280;20422;53.014;8.886;2022-11-20T08:39:03;101093.16;;;0.93;100.00
34145;BME280;20422;53.014;8.886;2022-11-20T08:41:30;101082.94;;;0.78;100.00
34145;BME280;20422;53.014;8.886;2022-11-20T08:44:09;101093.81;;;1.03;100.00
34145;BME280;20422;53.014;8.886;2022-11-20T08:46:41;101086.72;;;1.05;100.00
34145;BME280;20422;53.014;8.886;2022-11-20T08:49:10;101087.91;;;1.67;100.00
34145;BME280;20422;53.014;8.886;2022-11-20T08:51:38;101084.28;;;2.05;100.00
34145;BME280;20422;53.014;8.886;2022-11-20T08:54:05;101081.19;;;1.88;100.00
34145;BME280;20422;53.014;8.886;2022-11-20T08:56:32;101083.19;;;1.78;100.00
34145;BME280;20422;53.014;8.886;2022-11-20T08:58:58;101086.81;;;1.39;100.00
34145;BME280;20422;53.014;8.886;2022-11-20T09:01:28;101081.84;;;1.96;100.00
34145;BME280;20422;53.014;8.886;2022-11-20T09:04:00;101086.84;;;1.74;100.00
34145;BME280;20422;53.014;8.886;2022-11-20T09:06:27;101062.78;;;1.51;100.00
34145;BME280;20422;53.014;8.886;2022-11-20T09:08:54;101069.75;;;1.88;100.00
34145;BME280;20422;53.014;8.886;2022-11-20T09:11:21;101086.78;;;2.42;100.00
34145;BME280;20422;53.014;8.886;2022-11-20T09:13:48;101047.53;;;2.58;100.00
34145;BME280;20422;53.014;8.886;2022-11-20T09:16:18;101074.19;;;2.82;98.83
34145;BME280;20422;53.014;8.886;2022-11-20T09:18:44;101072.09;;;2.63;97.79
34145;BME280;20422;53.014;8.886;2022-11-20T09:21:12;101073.97;;;2.89;97.79
34145;BME280;20422;53.014;8.886;2022-11-20T09:23:39;101072.25;;;2.88;97.64
34145;BME280;20422;53.014;8.886;2022-11-20T09:26:12;101080.84;;;2.95;96.86
34145;BME280;20422;53.014;8.886;2022-11-20T09:28:38;101066.97;;;3.16;96.49
34145;BME280;20422;53.014;8.886;2022-11-20T09:31:30;101074.53;;;3.55;96.02
34145;BME280;20422;53.014;8.886;2022-11-20T09:33:55;101056.84;;;3.55;94.67
34145;BME280;20422;53.014;8.886;2022-11-20T09:36:22;101064.81;;;3.55;94.19
34145;BME280;20422;53.014;8.886;2022-11-20T09:38:48;101074.13;;;3.41;93.98
34145;BME280;20422;53.014;8.886;2022-11-20T09:41:36;101078.41;;;3.17;94.55
34145;BME280;20422;53.014;8.886;2022-11-20T09:50:25;101074.47;;;2.72;95.65
34145;BME280;20422;53.014;8.886;2022-11-20T09:53:12;101074.34;;;3.07;95.39
34145;BME280;20422;53.014;8.886;2022-11-20T09:55:39;101056.84;;;3.01;94.58
34145;BME280;20422;53.014;8.886;2022-11-20T09:58:44;101054.63;;;3.15;94.94
34145;BME280;20422;53.014;8.886;2022-11-20T10:01:19;101047.66;;;3.13;94.51
34145;BME280;20422;53.014;8.886;2022-11-20T10:04:03;101055.22;;;3.25;94.13
34145;BME280;20422;53.014;8.886;2022-11-20T10:06:58;101045.78;;;2.88;93.58
34145;BME280;20422;53.014;8.886;2022-11-20T10:09:34;101055.66;;;2.82;94.46
34145;BME280;20422;53.014;8.886;2022-11-20T10:15:38;101053.84;;;2.84;94.94
34145;BME280;20422;53.014;8.886;2022-11-20T10:24:21;101056.00;;;2.71;94.58
34145;BME280;20422;53.014;8.886;2022-11-20T10:29:43;101047.25;;;2.67;95.46
34145;BME280;20422;53.014;8.886;2022-11-20T10:32:20;101037.25;;;2.48;95.98
34145;BME280;20422;53.014;8.886;2022-11-20T10:35:05;101044.81;;;2.61;95.96
34145;BME280;20422;53.014;8.886;2022-11-20T10:37:37;101043.69;;;2.70;96.15
34145;BME280;20422;53.014;8.886;2022-11-20T10:40:27;101042.06;;;2.64;96.27
34145;BME280;20422;53.014;8.886;2022-11-20T10:43:15;101038.19;;;2.76;96.57
34145;BME280;20422;53.014;8.886;2022-11-20T10:46:03;101047.50;;;2.89;96.79
34145;BME280;20422;53.014;8.886;2022-11-20T10:48:32;101039.00;;;2.78;96.26
34145;BME280;20422;53.014;8.886;2022-11-20T10:57:53;101036.00;;;2.90;97.44
34145;BME280;20422;53.014;8.886;2022-11-20T11:00:22;101026.66;;;2.79;97.53
34145;BME280;20422;53.014;8.886;2022-11-20T11:02:53;101032.94;;;2.75;97.20
34145;BME280;20422;53.014;8.886;2022-11-20T11:05:25;101036.41;;;2.77;97.25
34145;BME280;20422;53.014;8.886;2022-11-20T11:07:55;101023.09;;;2.80;96.72
34145;BME280;20422;53.014;8.886;2022-11-20T11:13:41;101025.63;;;2.83;96.70
34145;BME280;20422;53.014;8.886;2022-11-20T11:16:20;101017.34;;;2.65;97.01
34145;BME280;20422;53.014;8.886;2022-11-20T11:18:47;101024.06;;;2.77;96.62
34145;BME280;20422;53.014;8.886;2022-11-20T11:21:21;101015.66;;;2.63;95.93
34145;BME280;20422;53.014;8.886;2022-11-20T11:24:01;101027.91;;;2.65;96.06
34145;BME280;20422;53.014;8.886;2022-11-20T11:26:28;101030.84;;;2.56;96.54
34145;BME280;20422;53.014;8.886;2022-11-20T11:28:56;100999.94;;;2.27;97.01
34145;BME280;20422;53.014;8.886;2022-11-20T11:31:30;101018.78;;;2.15;97.90
34145;BME280;20422;53.014;8.886;2022-11-20T11:34:13;101022.78;;;1.66;100.00
34145;BME280;20422;53.014;8.886;2022-11-20T11:36:42;101026.88;;;1.42;100.00
34145;BME280;20422;53.014;8.886;2022-11-20T11:39:20;101024.59;;;1.29;100.00
34145;BME280;20422;53.014;8.886;2022-11-20T11:41:48;101020.94;;;0.97;100.00
34145;BME280;20422;53.014;8.886;2022-11-20T11:44:23;101019.91;;;1.03;100.00
34145;BME280;20422;53.014;8.886;2022-11-20T11:47:24;101008.63;;;1.33;100.00
34145;BME280;20422;53.014;8.886;2022-11-20T11:50:26;101005.31;;;1.59;100.00
34145;BME280;20422;53.014;8.886;2022-11-20T11:53:14;101005.09;;;1.68;100.00
34145;BME280;20422;53.014;8.886;2022-11-20T11:56:13;101015.13;;;1.88;100.00
34145;BME280;20422;53.014;8.886;2022-11-20T11:58:50;101004.50;;;2.22;100.00
34145;BME280;20422;53.014;8.886;2022-11-20T12:01:42;101005.75;;;2.09;100.00
34145;BME280;20422;53.014;8.886;2022-11-20T12:04:42;101001.56;;;2.02;100.00
34145;BME280;20422;53.014;8.886;2022-11-20T12:07:20;100996.34;;;2.30;100.00
34145;BME280;20422;53.014;8.886;2022-11-20T12:09:52;100998.09;;;2.60;99.82
34145;BME280;20422;53.014;8.886;2022-11-20T12:12:44;100987.41;;;2.93;98.70
34145;BME280;20422;53.014;8.886;2022-11-20T12:15:25;100981.63;;;3.08;97.16
34145;BME280;20422;53.014;8.886;2022-11-20T12:17:52;100983.13;;;3.15;96.09
34145;BME280;20422;53.014;8.886;2022-11-20T12:20:18;100977.47;;;2.99;94.74
34145;BME280;20422;53.014;8.886;2022-11-20T12:23:09;100994.25;;;2.98;94.30
34145;BME280;20422;53.014;8.886;2022-11-20T12:25:54;100997.44;;;3.10;93.90
34145;BME280;20422;53.014;8.886;2022-11-20T12:28:47;100975.63;;;3.01;94.28
34145;BME280;20422;53.014;8.886;2022-11-20T12:34:59;100991.28;;;3.36;93.82
34145;BME280;20422;53.014;8.886;2022-11-20T12:40:44;100995.56;;;2.85;93.64
34145;BME280;20422;53.014;8.886;2022-11-20T12:43:21;100980.50;;;2.59;95.15
34145;BME280;20422;53.014;8.886;2022-11-20T12:49:34;100998.06;;;2.01;99.14
34145;BME280;20422;53.014;8.886;2022-11-20T12:52:36;101000.38;;;2.12;99.80
34145;BME280;20422;53.014;8.886;2022-11-20T12:58:51;101003.75;;;1.52;100.00
34145;BME280;20422;53.014;8.886;2022-11-20T13:01:37;100996.75;;;1.51;100.00
34145;BME280;20422;53.014;8.886;2022-11-20T13:04:39;100999.94;;;1.64;100.00
34145;BME280;20422;53.014;8.886;2022-11-20T13:07:14;100993.88;;;1.93;100.00
